sensor_id;sensor_type;location;lat;lon;timestamp;pressure;altitude;pressure_sealevel;temperature;humidity
60874;BME280;46715;40.642;-7.920;2023-04-26T00:00:01;96349.09;;;15.05;98.24
60874;BME280;46715;40.642;-7.920;2023-04-26T00:02:08;96350.00;;;15.00;98.57
60874;BME280;46715;40.642;-7.920;2023-04-26T00:04:08;96349.81;;;14.96;98.35
60874;BME280;46715;40.642;-7.920;2023-04-26T00:06:09;96350.88;;;14.95;98.44
60874;BME280;46715;40.642;-7.920;2023-04-26T00:08:13;96349.69;;;15.02;98.70
60874;BME280;46715;40.642;-7.920;2023-04-26T00:10:14;96348.44;;;14.99;98.61
60874;BME280;46715;40.642;-7.920;2023-04-26T00:12:15;96347.19;;;14.96;98.13
60874;BME280;46715;40.642;-7.920;2023-04-26T00:14:16;96345.44;;;14.92;97.95
60874;BME280;46715;40.642;-7.920;2023-04-26T00:16:18;96348.94;;;14.87;98.43
60874;BME280;46715;40.642;-7.920;2023-04-26T00:18:20;96349.03;;;14.96;98.14
60874;BME280;46715;40.642;-7.920;2023-04-26T00:20:21;96347.28;;;14.91;97.62
60874;BME280;46715;40.642;-7.920;2023-04-26T00:22:22;96341.81;;;14.88;97.63
60874;BME280;46715;40.642;-7.920;2023-04-26T00:24:24;96339.31;;;14.82;97.09
60874;BME280;46715;40.642;-7.920;2023-04-26T00:26:25;96339.88;;;14.79;97.22
60874;BME280;46715;40.642;-7.920;2023-04-26T00:28:27;96348.34;;;14.76;97.51
60874;BME280;46715;40.642;-7.920;2023-04-26T00:30:30;96350.19;;;14.76;97.67
60874;BME280;46715;40.642;-7.920;2023-04-26T00:32:31;96341.22;;;14.77;97.94
60874;BME280;46715;40.642;-7.920;2023-04-26T00:34:36;96337.38;;;14.74;97.96
60874;BME280;46715;40.642;-7.920;2023-04-26T00:36:37;96334.75;;;14.74;97.47
60874;BME280;46715;40.642;-7.920;2023-04-26T00:38:37;96339.28;;;14.69;97.08
60874;BME280;46715;40.642;-7.920;2023-04-26T00:40:38;96339.66;;;14.62;97.18
60874;BME280;46715;40.642;-7.920;2023-04-26T00:42:39;96338.41;;;14.59;97.49
60874;BME280;46715;40.642;-7.920;2023-04-26T00:44:40;96332.16;;;14.55;97.86
60874;BME280;46715;40.642;-7.920;2023-04-26T00:46:42;96338.19;;;14.56;98.17
60874;BME280;46715;40.642;-7.920;2023-04-26T00:48:43;96327.97;;;14.54;98.52
60874;BME280;46715;40.642;-7.920;2023-04-26T00:50:44;96333.75;;;14.56;98.34
60874;BME280;46715;40.642;-7.920;2023-04-26T00:52:47;96336.53;;;14.60;98.00
60874;BME280;46715;40.642;-7.920;2023-04-26T00:54:49;96322.94;;;14.58;98.81
60874;BME280;46715;40.642;-7.920;2023-04-26T00:56:51;96325.28;;;14.59;98.76
60874;BME280;46715;40.642;-7.920;2023-04-26T00:58:52;96326.03;;;14.60;98.87
60874;BME280;46715;40.642;-7.920;2023-04-26T01:00:53;96325.75;;;14.61;99.17
60874;BME280;46715;40.642;-7.920;2023-04-26T01:02:54;96324.22;;;14.60;99.28
60874;BME280;46715;40.642;-7.920;2023-04-26T01:04:55;96313.44;;;14.62;99.11
60874;BME280;46715;40.642;-7.920;2023-04-26T01:06:55;96308.25;;;14.57;98.60
60874;BME280;46715;40.642;-7.920;2023-04-26T01:08:57;96312.25;;;14.54;98.47
60874;BME280;46715;40.642;-7.920;2023-04-26T01:11:03;96302.81;;;14.53;98.68
60874;BME280;46715;40.642;-7.920;2023-04-26T01:13:05;96314.41;;;14.52;98.77
60874;BME280;46715;40.642;-7.920;2023-04-26T01:15:07;96306.22;;;14.54;98.70
60874;BME280;46715;40.642;-7.920;2023-04-26T01:17:09;96308.34;;;14.52;98.69
60874;BME280;46715;40.642;-7.920;2023-04-26T01:19:10;96299.22;;;14.49;98.68
60874;BME280;46715;40.642;-7.920;2023-04-26T01:21:18;96293.50;;;14.47;98.92
60874;BME280;46715;40.642;-7.920;2023-04-26T01:23:21;96290.56;;;14.48;98.88
60874;BME280;46715;40.642;-7.920;2023-04-26T01:25:22;96288.81;;;14.44;99.14
60874;BME280;46715;40.642;-7.920;2023-04-26T01:27:22;96284.94;;;14.41;98.59
60874;BME280;46715;40.642;-7.920;2023-04-26T01:29:23;96282.97;;;14.33;98.71
60874;BME280;46715;40.642;-7.920;2023-04-26T01:31:25;96280.44;;;14.28;99.34
60874;BME280;46715;40.642;-7.920;2023-04-26T01:33:27;96272.78;;;14.31;99.67
60874;BME280;46715;40.642;-7.920;2023-04-26T01:35:28;96271.03;;;14.41;100.00
60874;BME280;46715;40.642;-7.920;2023-04-26T01:37:29;96272.13;;;14.40;100.00
60874;BME280;46715;40.642;-7.920;2023-04-26T01:39:33;96272.41;;;14.38;100.00
60874;BME280;46715;40.642;-7.920;2023-04-26T01:41:34;96271.13;;;14.36;100.00
60874;BME280;46715;40.642;-7.920;2023-04-26T01:43:35;96262.69;;;14.39;100.00
60874;BME280;46715;40.642;-7.920;2023-04-26T01:45:36;96260.81;;;14.39;100.00
60874;BME280;46715;40.642;-7.920;2023-04-26T01:47:57;96260.06;;;14.39;100.00
60874;BME280;46715;40.642;-7.920;2023-04-26T01:49:58;96267.16;;;14.38;100.00
60874;BME280;46715;40.642;-7.920;2023-04-26T01:52:00;96256.94;;;14.37;100.00
60874;BME280;46715;40.642;-7.920;2023-04-26T01:54:01;96255.28;;;14.41;99.82
60874;BME280;46715;40.642;-7.920;2023-04-26T01:56:02;96246.94;;;14.39;99.95
60874;BME280;46715;40.642;-7.920;2023-04-26T01:58:04;96248.50;;;14.40;99.91
60874;BME280;46715;40.642;-7.920;2023-04-26T02:00:06;96246.47;;;14.51;99.45
60874;BME280;46715;40.642;-7.920;2023-04-26T02:02:17;96247.41;;;14.55;98.89
60874;BME280;46715;40.642;-7.920;2023-04-26T02:04:19;96238.38;;;14.47;99.18
60874;BME280;46715;40.642;-7.920;2023-04-26T02:06:20;96236.91;;;14.41;99.44
60874;BME280;46715;40.642;-7.920;2023-04-26T02:08:21;96244.91;;;14.36;99.29
60874;BME280;46715;40.642;-7.920;2023-04-26T02:10:22;96236.53;;;14.33;99.30
60874;BME280;46715;40.642;-7.920;2023-04-26T02:12:24;96233.44;;;14.31;100.00
60874;BME280;46715;40.642;-7.920;2023-04-26T02:14:25;96236.84;;;14.32;100.00
60874;BME280;46715;40.642;-7.920;2023-04-26T02:16:26;96241.78;;;14.33;100.00
60874;BME280;46715;40.642;-7.920;2023-04-26T02:18:28;96224.50;;;14.32;100.00
60874;BME280;46715;40.642;-7.920;2023-04-26T02:20:29;96221.88;;;14.32;100.00
60874;BME280;46715;40.642;-7.920;2023-04-26T02:22:30;96218.69;;;14.36;100.00
60874;BME280;46715;40.642;-7.920;2023-04-26T02:24:31;96215.47;;;14.39;100.00
60874;BME280;46715;40.642;-7.920;2023-04-26T02:26:32;96216.41;;;14.57;100.00
60874;BME280;46715;40.642;-7.920;2023-04-26T02:28:34;96212.53;;;14.54;100.00
60874;BME280;46715;40.642;-7.920;2023-04-26T02:30:35;96211.09;;;14.48;100.00
60874;BME280;46715;40.642;-7.920;2023-04-26T02:32:36;96217.97;;;14.58;100.00
60874;BME280;46715;40.642;-7.920;2023-04-26T02:34:37;96204.00;;;14.48;100.00
60874;BME280;46715;40.642;-7.920;2023-04-26T02:36:38;96198.28;;;14.46;100.00
60874;BME280;46715;40.642;-7.920;2023-04-26T02:38:40;96200.69;;;14.43;100.00
60874;BME280;46715;40.642;-7.920;2023-04-26T02:40:42;96196.59;;;14.37;100.00
60874;BME280;46715;40.642;-7.920;2023-04-26T02:42:47;96197.69;;;14.36;100.00
60874;BME280;46715;40.642;-7.920;2023-04-26T02:44:47;96189.63;;;14.32;100.00
60874;BME280;46715;40.642;-7.920;2023-04-26T02:46:50;96198.84;;;14.29;100.00
60874;BME280;46715;40.642;-7.920;2023-04-26T02:48:51;96191.34;;;14.23;100.00
60874;BME280;46715;40.642;-7.920;2023-04-26T02:50:52;96187.00;;;14.18;100.00
60874;BME280;46715;40.642;-7.920;2023-04-26T02:52:54;96183.91;;;14.16;100.00
60874;BME280;46715;40.642;-7.920;2023-04-26T02:54:55;96181.56;;;14.14;100.00
60874;BME280;46715;40.642;-7.920;2023-04-26T02:56:56;96183.00;;;14.07;100.00
60874;BME280;46715;40.642;-7.920;2023-04-26T02:58:59;96194.75;;;13.95;100.00
60874;BME280;46715;40.642;-7.920;2023-04-26T03:01:00;96186.28;;;13.85;100.00
60874;BME280;46715;40.642;-7.920;2023-04-26T03:03:01;96178.03;;;13.77;100.00
60874;BME280;46715;40.642;-7.920;2023-04-26T03:05:02;96182.78;;;13.75;100.00
60874;BME280;46715;40.642;-7.920;2023-04-26T03:07:04;96177.34;;;13.72;100.00
60874;BME280;46715;40.642;-7.920;2023-04-26T03:09:05;96172.78;;;13.63;100.00
60874;BME280;46715;40.642;-7.920;2023-04-26T03:11:07;96177.22;;;13.63;100.00
60874;BME280;46715;40.642;-7.920;2023-04-26T03:13:08;96178.50;;;13.66;100.00
60874;BME280;46715;40.642;-7.920;2023-04-26T03:15:09;96176.38;;;13.68;100.00
60874;BME280;46715;40.642;-7.920;2023-04-26T03:17:12;96174.34;;;13.64;100.00
60874;BME280;46715;40.642;-7.920;2023-04-26T03:19:13;96177.63;;;13.56;100.00
60874;BME280;46715;40.642;-7.920;2023-04-26T03:21:14;96172.47;;;13.51;100.00
60874;BME280;46715;40.642;-7.920;2023-04-26T03:23:16;96169.34;;;13.49;100.00
60874;BME280;46715;40.642;-7.920;2023-04-26T03:25:16;96168.28;;;13.50;100.00
60874;BME280;46715;40.642;-7.920;2023-04-26T03:27:18;96169.34;;;13.49;100.00
60874;BME280;46715;40.642;-7.920;2023-04-26T03:29:20;96170.13;;;13.50;100.00
60874;BME280;46715;40.642;-7.920;2023-04-26T03:31:21;96165.56;;;13.55;100.00
60874;BME280;46715;40.642;-7.920;2023-04-26T03:33:23;96180.44;;;13.60;100.00
60874;BME280;46715;40.642;-7.920;2023-04-26T03:35:23;96163.66;;;13.61;100.00
60874;BME280;46715;40.642;-7.920;2023-04-26T03:37:25;96166.75;;;13.63;100.00
60874;BME280;46715;40.642;-7.920;2023-04-26T03:39:32;96168.50;;;13.68;100.00
60874;BME280;46715;40.642;-7.920;2023-04-26T03:41:34;96159.47;;;13.60;100.00
60874;BME280;46715;40.642;-7.920;2023-04-26T03:43:40;96169.53;;;13.53;100.00
60874;BME280;46715;40.642;-7.920;2023-04-26T03:45:40;96168.28;;;13.50;100.00
60874;BME280;46715;40.642;-7.920;2023-04-26T03:47:42;96162.06;;;13.46;100.00
60874;BME280;46715;40.642;-7.920;2023-04-26T03:49:43;96155.84;;;13.42;100.00
60874;BME280;46715;40.642;-7.920;2023-04-26T03:51:44;96162.28;;;13.50;100.00
60874;BME280;46715;40.642;-7.920;2023-04-26T03:53:45;96161.78;;;13.61;100.00
60874;BME280;46715;40.642;-7.920;2023-04-26T03:55:48;96169.94;;;13.60;100.00
60874;BME280;46715;40.642;-7.920;2023-04-26T03:57:50;96163.63;;;13.47;100.00
60874;BME280;46715;40.642;-7.920;2023-04-26T03:59:56;96168.50;;;13.35;100.00
60874;BME280;46715;40.642;-7.920;2023-04-26T04:01:57;96166.06;;;13.24;100.00
60874;BME280;46715;40.642;-7.920;2023-04-26T04:03:58;96173.97;;;13.19;100.00
60874;BME280;46715;40.642;-7.920;2023-04-26T04:05:59;96176.94;;;13.12;100.00
60874;BME280;46715;40.642;-7.920;2023-04-26T04:08:01;96174.63;;;13.11;100.00
60874;BME280;46715;40.642;-7.920;2023-04-26T04:10:04;96173.34;;;13.08;100.00
60874;BME280;46715;40.642;-7.920;2023-04-26T04:12:05;96170.25;;;13.06;100.00
60874;BME280;46715;40.642;-7.920;2023-04-26T04:14:06;96162.47;;;13.01;100.00
60874;BME280;46715;40.642;-7.920;2023-04-26T04:16:08;96163.53;;;13.00;100.00
60874;BME280;46715;40.642;-7.920;2023-04-26T04:18:10;96160.31;;;13.03;100.00
60874;BME280;46715;40.642;-7.920;2023-04-26T04:20:11;96154.25;;;13.08;100.00
60874;BME280;46715;40.642;-7.920;2023-04-26T04:22:13;96152.69;;;13.07;100.00
60874;BME280;46715;40.642;-7.920;2023-04-26T04:24:15;96155.78;;;13.09;100.00
60874;BME280;46715;40.642;-7.920;2023-04-26T04:26:17;96149.50;;;13.10;100.00
60874;BME280;46715;40.642;-7.920;2023-04-26T04:28:18;96149.03;;;13.08;100.00
60874;BME280;46715;40.642;-7.920;2023-04-26T04:30:22;96147.75;;;13.05;100.00
60874;BME280;46715;40.642;-7.920;2023-04-26T04:32:24;96158.50;;;13.04;100.00
60874;BME280;46715;40.642;-7.920;2023-04-26T04:34:26;96151.41;;;13.04;100.00
60874;BME280;46715;40.642;-7.920;2023-04-26T04:36:27;96152.28;;;13.00;100.00
60874;BME280;46715;40.642;-7.920;2023-04-26T04:38:28;96158.34;;;12.95;100.00
60874;BME280;46715;40.642;-7.920;2023-04-26T04:40:29;96150.50;;;12.95;100.00
60874;BME280;46715;40.642;-7.920;2023-04-26T04:42:33;96152.13;;;12.91;100.00
60874;BME280;46715;40.642;-7.920;2023-04-26T04:44:37;96152.69;;;12.88;100.00
60874;BME280;46715;40.642;-7.920;2023-04-26T04:46:40;96154.03;;;12.85;100.00
60874;BME280;46715;40.642;-7.920;2023-04-26T04:48:41;96153.28;;;12.85;100.00
60874;BME280;46715;40.642;-7.920;2023-04-26T04:50:43;96155.66;;;12.81;100.00
60874;BME280;46715;40.642;-7.920;2023-04-26T04:52:46;96156.75;;;12.80;100.00
60874;BME280;46715;40.642;-7.920;2023-04-26T04:54:48;96158.09;;;12.77;100.00
60874;BME280;46715;40.642;-7.920;2023-04-26T04:56:49;96155.25;;;12.74;100.00
60874;BME280;46715;40.642;-7.920;2023-04-26T04:58:51;96155.53;;;12.72;100.00
60874;BME280;46715;40.642;-7.920;2023-04-26T05:00:55;96155.53;;;12.72;100.00
60874;BME280;46715;40.642;-7.920;2023-04-26T05:03:02;96147.50;;;12.69;100.00
60874;BME280;46715;40.642;-7.920;2023-04-26T05:05:03;96151.63;;;12.70;100.00
60874;BME280;46715;40.642;-7.920;2023-04-26T05:07:05;96150.59;;;12.71;100.00
60874;BME280;46715;40.642;-7.920;2023-04-26T05:09:07;96150.31;;;12.72;100.00
60874;BME280;46715;40.642;-7.920;2023-04-26T05:11:09;96150.00;;;12.74;100.00
60874;BME280;46715;40.642;-7.920;2023-04-26T05:13:12;96153.91;;;12.76;100.00
60874;BME280;46715;40.642;-7.920;2023-04-26T05:15:15;96155.25;;;12.74;100.00
60874;BME280;46715;40.642;-7.920;2023-04-26T05:17:16;96156.81;;;12.75;100.00
60874;BME280;46715;40.642;-7.920;2023-04-26T05:19:19;96145.84;;;12.73;100.00
60874;BME280;46715;40.642;-7.920;2023-04-26T05:21:22;96155.47;;;12.77;100.00
60874;BME280;46715;40.642;-7.920;2023-04-26T05:23:24;96160.34;;;12.84;100.00
60874;BME280;46715;40.642;-7.920;2023-04-26T05:25:26;96161.41;;;12.83;100.00
60874;BME280;46715;40.642;-7.920;2023-04-26T05:27:33;96153.63;;;12.78;100.00
60874;BME280;46715;40.642;-7.920;2023-04-26T05:29:52;96161.34;;;12.69;100.00
60874;BME280;46715;40.642;-7.920;2023-04-26T05:32:12;96160.06;;;12.67;100.00
60874;BME280;46715;40.642;-7.920;2023-04-26T05:34:13;96163.44;;;12.67;100.00
60874;BME280;46715;40.642;-7.920;2023-04-26T05:36:14;96164.59;;;12.61;100.00
60874;BME280;46715;40.642;-7.920;2023-04-26T05:38:15;96169.25;;;12.64;100.00
60874;BME280;46715;40.642;-7.920;2023-04-26T05:40:17;96171.56;;;12.66;100.00
60874;BME280;46715;40.642;-7.920;2023-04-26T05:42:19;96166.63;;;12.64;100.00
60874;BME280;46715;40.642;-7.920;2023-04-26T05:44:20;96164.00;;;12.64;100.00
60874;BME280;46715;40.642;-7.920;2023-04-26T05:46:22;96165.06;;;12.63;100.00
60874;BME280;46715;40.642;-7.920;2023-04-26T05:48:23;96170.09;;;12.59;100.00
60874;BME280;46715;40.642;-7.920;2023-04-26T05:50:24;96166.63;;;12.64;100.00
60874;BME280;46715;40.642;-7.920;2023-04-26T05:52:25;96169.31;;;12.78;100.00
60874;BME280;46715;40.642;-7.920;2023-04-26T05:54:26;96174.84;;;12.76;100.00
60874;BME280;46715;40.642;-7.920;2023-04-26T05:56:27;96180.94;;;12.72;100.00
60874;BME280;46715;40.642;-7.920;2023-04-26T05:58:29;96184.03;;;12.74;100.00
60874;BME280;46715;40.642;-7.920;2023-04-26T06:00:31;96182.81;;;12.85;100.00
60874;BME280;46715;40.642;-7.920;2023-04-26T06:02:37;96192.38;;;12.95;100.00
60874;BME280;46715;40.642;-7.920;2023-04-26T06:04:38;96190.84;;;12.94;100.00
60874;BME280;46715;40.642;-7.920;2023-04-26T06:06:45;96194.22;;;12.94;100.00
60874;BME280;46715;40.642;-7.920;2023-04-26T06:08:47;96189.22;;;12.98;100.00
60874;BME280;46715;40.642;-7.920;2023-04-26T06:10:49;96201.72;;;13.01;100.00
60874;BME280;46715;40.642;-7.920;2023-04-26T06:12:51;96202.44;;;13.07;100.00
60874;BME280;46715;40.642;-7.920;2023-04-26T06:14:53;96200.88;;;13.06;100.00
60874;BME280;46715;40.642;-7.920;2023-04-26T06:16:57;96195.00;;;13.14;100.00
60874;BME280;46715;40.642;-7.920;2023-04-26T06:18:58;96201.91;;;13.24;100.00
60874;BME280;46715;40.642;-7.920;2023-04-26T06:21:02;96196.47;;;13.39;100.00
60874;BME280;46715;40.642;-7.920;2023-04-26T06:23:06;96187.50;;;13.59;100.00
60874;BME280;46715;40.642;-7.920;2023-04-26T06:25:06;96198.34;;;13.86;100.00
60874;BME280;46715;40.642;-7.920;2023-04-26T06:27:10;96189.81;;;14.08;100.00
60874;BME280;46715;40.642;-7.920;2023-04-26T06:29:13;96188.25;;;14.21;100.00
60874;BME280;46715;40.642;-7.920;2023-04-26T06:31:15;96188.72;;;14.37;100.00
60874;BME280;46715;40.642;-7.920;2023-04-26T06:33:17;96192.72;;;14.48;99.67
60874;BME280;46715;40.642;-7.920;2023-04-26T06:35:18;96184.28;;;14.65;99.62
60874;BME280;46715;40.642;-7.920;2023-04-26T06:37:19;96191.53;;;14.82;98.95
60874;BME280;46715;40.642;-7.920;2023-04-26T06:39:22;96191.09;;;15.03;98.43
60874;BME280;46715;40.642;-7.920;2023-04-26T06:41:23;96192.19;;;15.24;97.65
60874;BME280;46715;40.642;-7.920;2023-04-26T06:43:25;96199.94;;;15.52;96.87
60874;BME280;46715;40.642;-7.920;2023-04-26T06:45:35;96203.16;;;15.72;95.44
60874;BME280;46715;40.642;-7.920;2023-04-26T06:47:36;96195.97;;;15.86;95.18
60874;BME280;46715;40.642;-7.920;2023-04-26T06:49:37;96195.41;;;15.98;94.61
60874;BME280;46715;40.642;-7.920;2023-04-26T06:51:38;96199.03;;;16.11;94.03
60874;BME280;46715;40.642;-7.920;2023-04-26T06:53:39;96203.22;;;16.12;94.11
60874;BME280;46715;40.642;-7.920;2023-04-26T06:55:41;96199.84;;;16.20;94.24
60874;BME280;46715;40.642;-7.920;2023-04-26T06:57:48;96204.03;;;16.30;94.56
60874;BME280;46715;40.642;-7.920;2023-04-26T06:59:50;96203.00;;;16.40;95.11
60874;BME280;46715;40.642;-7.920;2023-04-26T07:01:51;96206.88;;;16.51;95.04
60874;BME280;46715;40.642;-7.920;2023-04-26T07:03:52;96213.09;;;16.55;94.73
60874;BME280;46715;40.642;-7.920;2023-04-26T07:05:53;96202.72;;;16.59;94.43
60874;BME280;46715;40.642;-7.920;2023-04-26T07:07:55;96211.56;;;16.72;93.60
60874;BME280;46715;40.642;-7.920;2023-04-26T07:09:56;96213.47;;;16.89;92.79
60874;BME280;46715;40.642;-7.920;2023-04-26T07:11:57;96216.41;;;16.87;91.07
60874;BME280;46715;40.642;-7.920;2023-04-26T07:13:57;96211.94;;;16.96;91.39
60874;BME280;46715;40.642;-7.920;2023-04-26T07:15:59;96215.50;;;17.00;90.35
60874;BME280;46715;40.642;-7.920;2023-04-26T07:17:59;96215.66;;;17.13;90.39
60874;BME280;46715;40.642;-7.920;2023-04-26T07:20:01;96210.53;;;17.25;90.24
60874;BME280;46715;40.642;-7.920;2023-04-26T07:22:02;96211.91;;;17.49;89.41
60874;BME280;46715;40.642;-7.920;2023-04-26T07:24:04;96219.63;;;17.80;85.85
60874;BME280;46715;40.642;-7.920;2023-04-26T07:26:05;96219.50;;;18.24;84.20
60874;BME280;46715;40.642;-7.920;2023-04-26T07:28:06;96220.63;;;19.25;82.36
60874;BME280;46715;40.642;-7.920;2023-04-26T07:30:08;96220.91;;;20.73;73.01
60874;BME280;46715;40.642;-7.920;2023-04-26T07:32:11;96224.66;;;22.46;66.36
60874;BME280;46715;40.642;-7.920;2023-04-26T07:34:15;96203.94;;;23.89;60.52
60874;BME280;46715;40.642;-7.920;2023-04-26T07:36:27;96203.66;;;25.31;53.73
60874;BME280;46715;40.642;-7.920;2023-04-26T07:38:28;96209.84;;;26.18;51.53
60874;BME280;46715;40.642;-7.920;2023-04-26T07:40:31;96218.00;;;26.95;50.55
60874;BME280;46715;40.642;-7.920;2023-04-26T07:42:32;96217.53;;;27.74;47.57
60874;BME280;46715;40.642;-7.920;2023-04-26T07:44:33;96207.19;;;28.77;45.57
60874;BME280;46715;40.642;-7.920;2023-04-26T07:46:34;96206.34;;;29.76;43.47
60874;BME280;46715;40.642;-7.920;2023-04-26T07:48:37;96200.34;;;30.59;40.53
60874;BME280;46715;40.642;-7.920;2023-04-26T07:50:38;96199.25;;;30.53;39.90
60874;BME280;46715;40.642;-7.920;2023-04-26T07:52:39;96196.41;;;30.67;40.04
60874;BME280;46715;40.642;-7.920;2023-04-26T07:54:39;96205.09;;;30.82;39.82
60874;BME280;46715;40.642;-7.920;2023-04-26T07:56:40;96203.47;;;31.23;38.54
60874;BME280;46715;40.642;-7.920;2023-04-26T07:58:42;96209.22;;;31.56;38.53
60874;BME280;46715;40.642;-7.920;2023-04-26T08:00:44;96199.56;;;32.09;36.88
60874;BME280;46715;40.642;-7.920;2023-04-26T08:02:45;96198.44;;;32.54;36.23
60874;BME280;46715;40.642;-7.920;2023-04-26T08:04:47;96200.28;;;32.81;35.36
60874;BME280;46715;40.642;-7.920;2023-04-26T08:06:49;96192.94;;;33.02;34.76
60874;BME280;46715;40.642;-7.920;2023-04-26T08:08:54;96194.66;;;33.12;35.10
60874;BME280;46715;40.642;-7.920;2023-04-26T08:10:55;96190.97;;;33.22;34.78
60874;BME280;46715;40.642;-7.920;2023-04-26T08:12:56;96193.13;;;33.31;34.29
60874;BME280;46715;40.642;-7.920;2023-04-26T08:14:58;96198.06;;;32.76;34.07
60874;BME280;46715;40.642;-7.920;2023-04-26T08:16:59;96194.44;;;33.23;32.87
60874;BME280;46715;40.642;-7.920;2023-04-26T08:19:01;96187.25;;;33.69;32.33
60874;BME280;46715;40.642;-7.920;2023-04-26T08:21:02;96189.97;;;33.53;30.52
60874;BME280;46715;40.642;-7.920;2023-04-26T08:23:03;96189.47;;;34.40;30.27
60874;BME280;46715;40.642;-7.920;2023-04-26T08:25:04;96191.59;;;34.91;29.22
60874;BME280;46715;40.642;-7.920;2023-04-26T08:27:05;96186.53;;;35.06;29.45
60874;BME280;46715;40.642;-7.920;2023-04-26T08:29:06;96182.75;;;35.04;29.94
60874;BME280;46715;40.642;-7.920;2023-04-26T08:31:07;96186.97;;;35.17;29.44
60874;BME280;46715;40.642;-7.920;2023-04-26T08:33:09;96173.16;;;35.41;28.46
60874;BME280;46715;40.642;-7.920;2023-04-26T08:35:10;96172.91;;;35.23;29.08
60874;BME280;46715;40.642;-7.920;2023-04-26T08:37:11;96170.63;;;35.08;29.56
60874;BME280;46715;40.642;-7.920;2023-04-26T08:39:12;96173.94;;;34.87;29.45
60874;BME280;46715;40.642;-7.920;2023-04-26T08:41:13;96181.19;;;34.60;30.44
60874;BME280;46715;40.642;-7.920;2023-04-26T08:43:14;96178.84;;;34.62;31.00
60874;BME280;46715;40.642;-7.920;2023-04-26T08:45:21;96175.47;;;33.96;31.02
60874;BME280;46715;40.642;-7.920;2023-04-26T08:47:28;96183.03;;;34.34;30.75
60874;BME280;46715;40.642;-7.920;2023-04-26T08:51:37;96180.75;;;34.32;30.79
60874;BME280;46715;40.642;-7.920;2023-04-26T08:53:38;96179.16;;;34.35;30.06
60874;BME280;46715;40.642;-7.920;2023-04-26T08:55:43;96179.78;;;33.93;30.94
60874;BME280;46715;40.642;-7.920;2023-04-26T08:57:47;96192.34;;;34.33;30.43
60874;BME280;46715;40.642;-7.920;2023-04-26T08:59:47;96196.19;;;33.86;30.76
60874;BME280;46715;40.642;-7.920;2023-04-26T09:01:49;96193.56;;;32.25;33.67
60874;BME280;46715;40.642;-7.920;2023-04-26T09:03:50;96192.38;;;32.70;32.53
60874;BME280;46715;40.642;-7.920;2023-04-26T09:05:50;96194.50;;;33.39;31.44
60874;BME280;46715;40.642;-7.920;2023-04-26T09:07:55;96190.16;;;33.25;31.52
60874;BME280;46715;40.642;-7.920;2023-04-26T09:09:56;96187.22;;;33.16;32.12
60874;BME280;46715;40.642;-7.920;2023-04-26T09:12:00;96184.03;;;33.58;31.83
60874;BME280;46715;40.642;-7.920;2023-04-26T09:14:03;96186.63;;;33.98;30.45
60874;BME280;46715;40.642;-7.920;2023-04-26T09:16:03;96193.91;;;32.91;31.85
60874;BME280;46715;40.642;-7.920;2023-04-26T09:18:21;96197.38;;;32.92;31.78
60874;BME280;46715;40.642;-7.920;2023-04-26T09:20:23;96189.19;;;32.08;33.60
60874;BME280;46715;40.642;-7.920;2023-04-26T09:22:31;96183.16;;;32.00;33.40
60874;BME280;46715;40.642;-7.920;2023-04-26T09:24:46;96185.03;;;32.27;32.28
60874;BME280;46715;40.642;-7.920;2023-04-26T09:27:23;96181.69;;;32.43;32.31
60874;BME280;46715;40.642;-7.920;2023-04-26T09:29:17;96182.75;;;32.02;33.47
60874;BME280;46715;40.642;-7.920;2023-04-26T09:31:37;96185.88;;;32.24;32.46
60874;BME280;46715;40.642;-7.920;2023-04-26T09:33:56;96179.31;;;32.25;32.41
60874;BME280;46715;40.642;-7.920;2023-04-26T09:35:57;96178.91;;;32.46;31.99
60874;BME280;46715;40.642;-7.920;2023-04-26T09:38:15;96182.28;;;32.07;33.64
60874;BME280;46715;40.642;-7.920;2023-04-26T09:40:19;96180.84;;;31.75;33.02
60874;BME280;46715;40.642;-7.920;2023-04-26T09:42:20;96174.03;;;31.67;34.03
60874;BME280;46715;40.642;-7.920;2023-04-26T09:44:22;96183.59;;;32.86;32.16
60874;BME280;46715;40.642;-7.920;2023-04-26T09:46:23;96169.72;;;33.77;29.57
60874;BME280;46715;40.642;-7.920;2023-04-26T09:48:25;96169.63;;;33.97;29.12
60874;BME280;46715;40.642;-7.920;2023-04-26T09:50:28;96167.13;;;33.37;30.29
60874;BME280;46715;40.642;-7.920;2023-04-26T09:52:29;96169.50;;;33.35;30.88
60874;BME280;46715;40.642;-7.920;2023-04-26T09:54:39;96168.53;;;32.45;31.54
60874;BME280;46715;40.642;-7.920;2023-04-26T09:56:41;96174.50;;;32.56;32.38
60874;BME280;46715;40.642;-7.920;2023-04-26T10:00:43;96173.22;;;32.85;31.39
60874;BME280;46715;40.642;-7.920;2023-04-26T10:02:46;96181.91;;;33.12;31.07
60874;BME280;46715;40.642;-7.920;2023-04-26T10:04:49;96179.69;;;33.07;30.20
60874;BME280;46715;40.642;-7.920;2023-04-26T10:06:50;96169.22;;;33.83;29.48
60874;BME280;46715;40.642;-7.920;2023-04-26T10:08:51;96170.97;;;33.73;29.91
60874;BME280;46715;40.642;-7.920;2023-04-26T10:10:53;96178.00;;;33.87;29.79
60874;BME280;46715;40.642;-7.920;2023-04-26T10:12:54;96177.50;;;34.08;28.81
60874;BME280;46715;40.642;-7.920;2023-04-26T10:14:55;96179.81;;;34.69;28.47
60874;BME280;46715;40.642;-7.920;2023-04-26T10:16:57;96178.28;;;34.97;27.45
60874;BME280;46715;40.642;-7.920;2023-04-26T10:18:58;96183.31;;;35.11;27.56
60874;BME280;46715;40.642;-7.920;2023-04-26T10:21:01;96181.84;;;34.94;28.04
60874;BME280;46715;40.642;-7.920;2023-04-26T10:23:04;96186.00;;;34.98;26.93
60874;BME280;46715;40.642;-7.920;2023-04-26T10:25:07;96182.66;;;34.78;27.85
60874;BME280;46715;40.642;-7.920;2023-04-26T10:27:08;96183.00;;;34.80;28.03
60874;BME280;46715;40.642;-7.920;2023-04-26T10:29:09;96176.50;;;34.48;27.58
60874;BME280;46715;40.642;-7.920;2023-04-26T10:31:10;96171.72;;;34.23;28.22
60874;BME280;46715;40.642;-7.920;2023-04-26T10:33:11;96173.19;;;33.94;28.51
60874;BME280;46715;40.642;-7.920;2023-04-26T10:35:13;96177.19;;;33.53;27.78
60874;BME280;46715;40.642;-7.920;2023-04-26T10:37:15;96179.22;;;33.12;27.51
60874;BME280;46715;40.642;-7.920;2023-04-26T10:39:18;96178.41;;;34.18;26.76